sensor_id;sensor_type;location;lat;lon;timestamp;P1;durP1;ratioP1;P2;durP2;ratioP2
64826;SDS011;51265;53.972;12.286;2023-03-23T00:01:33;5.82;;;2.58;;
64826;SDS011;51265;53.972;12.286;2023-03-23T00:04:03;7.53;;;2.03;;
64826;SDS011;51265;53.972;12.286;2023-03-23T00:06:29;4.43;;;2.22;;
64826;SDS011;51265;53.972;12.286;2023-03-23T00:08:58;7.43;;;2.15;;
64826;SDS011;51265;53.972;12.286;2023-03-23T00:11:26;5.93;;;2.10;;
64826;SDS011;51265;53.972;12.286;2023-03-23T00:13:55;5.45;;;2.22;;
64826;SDS011;51265;53.972;12.286;2023-03-23T00:16:27;5.68;;;2.40;;
64826;SDS011;51265;53.972;12.286;2023-03-23T00:19:07;4.30;;;1.90;;
64826;SDS011;51265;53.972;12.286;2023-03-23T00:21:35;6.40;;;2.60;;
64826;SDS011;51265;53.972;12.286;2023-03-23T00:24:06;6.85;;;2.45;;
64826;SDS011;51265;53.972;12.286;2023-03-23T00:26:43;5.47;;;2.30;;
64826;SDS011;51265;53.972;12.286;2023-03-23T00:29:12;6.95;;;2.67;;
64826;SDS011;51265;53.972;12.286;2023-03-23T00:31:41;4.55;;;2.50;;
64826;SDS011;51265;53.972;12.286;2023-03-23T00:34:14;5.63;;;2.15;;
64826;SDS011;51265;53.972;12.286;2023-03-23T00:36:48;4.38;;;2.20;;
64826;SDS011;51265;53.972;12.286;2023-03-23T00:39:16;6.60;;;2.20;;
64826;SDS011;51265;53.972;12.286;2023-03-23T00:41:43;4.05;;;2.33;;
64826;SDS011;51265;53.972;12.286;2023-03-23T00:44:11;6.32;;;2.28;;
64826;SDS011;51265;53.972;12.286;2023-03-23T00:46:43;8.05;;;2.67;;
64826;SDS011;51265;53.972;12.286;2023-03-23T00:49:15;6.88;;;2.45;;
64826;SDS011;51265;53.972;12.286;2023-03-23T00:51:44;7.70;;;3.10;;
64826;SDS011;51265;53.972;12.286;2023-03-23T00:54:11;6.82;;;3.15;;
64826;SDS011;51265;53.972;12.286;2023-03-23T00:56:38;6.20;;;3.00;;
64826;SDS011;51265;53.972;12.286;2023-03-23T00:59:07;5.80;;;3.35;;
64826;SDS011;51265;53.972;12.286;2023-03-23T01:01:35;8.70;;;3.90;;
64826;SDS011;51265;53.972;12.286;2023-03-23T01:04:02;7.25;;;3.50;;
64826;SDS011;51265;53.972;12.286;2023-03-23T01:06:30;7.18;;;3.65;;
64826;SDS011;51265;53.972;12.286;2023-03-23T01:09:02;8.63;;;4.15;;
64826;SDS011;51265;53.972;12.286;2023-03-23T01:11:29;11.60;;;4.70;;
64826;SDS011;51265;53.972;12.286;2023-03-23T01:13:55;10.50;;;4.20;;
64826;SDS011;51265;53.972;12.286;2023-03-23T01:16:21;12.60;;;4.75;;
64826;SDS011;51265;53.972;12.286;2023-03-23T01:18:47;12.65;;;4.90;;
64826;SDS011;51265;53.972;12.286;2023-03-23T01:21:14;13.32;;;4.78;;
64826;SDS011;51265;53.972;12.286;2023-03-23T01:23:42;13.23;;;5.07;;
64826;SDS011;51265;53.972;12.286;2023-03-23T01:26:13;13.55;;;5.20;;
64826;SDS011;51265;53.972;12.286;2023-03-23T01:28:42;14.90;;;5.65;;
64826;SDS011;51265;53.972;12.286;2023-03-23T01:31:10;12.20;;;5.78;;
64826;SDS011;51265;53.972;12.286;2023-03-23T01:33:38;14.70;;;5.30;;
64826;SDS011;51265;53.972;12.286;2023-03-23T01:36:10;16.60;;;5.88;;
64826;SDS011;51265;53.972;12.286;2023-03-23T01:38:45;11.43;;;5.18;;
64826;SDS011;51265;53.972;12.286;2023-03-23T01:41:13;11.60;;;4.93;;
64826;SDS011;51265;53.972;12.286;2023-03-23T01:43:54;20.50;;;5.22;;
64826;SDS011;51265;53.972;12.286;2023-03-23T01:46:22;13.32;;;5.90;;
64826;SDS011;51265;53.972;12.286;2023-03-23T01:48:50;13.98;;;5.32;;
64826;SDS011;51265;53.972;12.286;2023-03-23T01:51:17;14.15;;;5.50;;
64826;SDS011;51265;53.972;12.286;2023-03-23T01:53:51;12.00;;;5.65;;
64826;SDS011;51265;53.972;12.286;2023-03-23T01:56:22;8.93;;;5.22;;
64826;SDS011;51265;53.972;12.286;2023-03-23T01:58:58;17.60;;;5.53;;
64826;SDS011;51265;53.972;12.286;2023-03-23T02:01:25;16.38;;;5.68;;
64826;SDS011;51265;53.972;12.286;2023-03-23T02:03:52;13.10;;;5.55;;
64826;SDS011;51265;53.972;12.286;2023-03-23T02:06:24;13.18;;;5.90;;
64826;SDS011;51265;53.972;12.286;2023-03-23T02:09:15;11.73;;;5.57;;
64826;SDS011;51265;53.972;12.286;2023-03-23T02:11:46;16.63;;;5.90;;
64826;SDS011;51265;53.972;12.286;2023-03-23T02:14:15;15.30;;;5.78;;
64826;SDS011;51265;53.972;12.286;2023-03-23T02:17:00;11.90;;;5.68;;
64826;SDS011;51265;53.972;12.286;2023-03-23T02:23:06;15.05;;;6.03;;
64826;SDS011;51265;53.972;12.286;2023-03-23T02:31:29;12.88;;;6.35;;
64826;SDS011;51265;53.972;12.286;2023-03-23T02:34:25;14.30;;;6.93;;
64826;SDS011;51265;53.972;12.286;2023-03-23T02:36:57;14.38;;;6.60;;
64826;SDS011;51265;53.972;12.286;2023-03-23T02:39:42;15.90;;;6.90;;
64826;SDS011;51265;53.972;12.286;2023-03-23T02:42:13;14.23;;;6.95;;
64826;SDS011;51265;53.972;12.286;2023-03-23T02:44:44;14.27;;;6.72;;
64826;SDS011;51265;53.972;12.286;2023-03-23T02:47:22;15.63;;;7.15;;
64826;SDS011;51265;53.972;12.286;2023-03-23T02:49:53;14.13;;;7.03;;
64826;SDS011;51265;53.972;12.286;2023-03-23T02:52:26;14.35;;;7.15;;
64826;SDS011;51265;53.972;12.286;2023-03-23T02:54:55;14.27;;;7.20;;
64826;SDS011;51265;53.972;12.286;2023-03-23T02:59:58;19.92;;;6.78;;
64826;SDS011;51265;53.972;12.286;2023-03-23T03:02:25;18.85;;;7.85;;
64826;SDS011;51265;53.972;12.286;2023-03-23T03:07:36;16.20;;;7.75;;
64826;SDS011;51265;53.972;12.286;2023-03-23T03:10:31;16.42;;;6.95;;
64826;SDS011;51265;53.972;12.286;2023-03-23T03:15:40;20.08;;;7.50;;
64826;SDS011;51265;53.972;12.286;2023-03-23T03:18:29;14.27;;;7.43;;
64826;SDS011;51265;53.972;12.286;2023-03-23T03:21:11;15.10;;;7.93;;
64826;SDS011;51265;53.972;12.286;2023-03-23T03:23:42;18.90;;;7.82;;
64826;SDS011;51265;53.972;12.286;2023-03-23T03:26:12;17.27;;;7.47;;
64826;SDS011;51265;53.972;12.286;2023-03-23T03:28:50;15.85;;;7.82;;
64826;SDS011;51265;53.972;12.286;2023-03-23T03:31:30;16.48;;;8.07;;
64826;SDS011;51265;53.972;12.286;2023-03-23T03:33:59;16.52;;;8.13;;
64826;SDS011;51265;53.972;12.286;2023-03-23T03:36:29;17.58;;;8.90;;
64826;SDS011;51265;53.972;12.286;2023-03-23T03:39:08;20.88;;;8.98;;
64826;SDS011;51265;53.972;12.286;2023-03-23T03:41:36;17.38;;;8.80;;
64826;SDS011;51265;53.972;12.286;2023-03-23T03:44:04;21.33;;;9.05;;
64826;SDS011;51265;53.972;12.286;2023-03-23T03:46:31;22.75;;;9.23;;
64826;SDS011;51265;53.972;12.286;2023-03-23T03:48:58;21.05;;;9.85;;
64826;SDS011;51265;53.972;12.286;2023-03-23T03:51:26;21.67;;;9.35;;
64826;SDS011;51265;53.972;12.286;2023-03-23T03:53:54;22.58;;;10.27;;
64826;SDS011;51265;53.972;12.286;2023-03-23T03:56:22;33.30;;;10.75;;
64826;SDS011;51265;53.972;12.286;2023-03-23T03:59:02;20.65;;;9.50;;
64826;SDS011;51265;53.972;12.286;2023-03-23T04:01:50;20.40;;;9.40;;
64826;SDS011;51265;53.972;12.286;2023-03-23T04:04:20;21.20;;;9.88;;
64826;SDS011;51265;53.972;12.286;2023-03-23T04:06:47;22.83;;;10.57;;
64826;SDS011;51265;53.972;12.286;2023-03-23T04:09:15;23.77;;;10.43;;
64826;SDS011;51265;53.972;12.286;2023-03-23T04:11:42;20.67;;;9.93;;
64826;SDS011;51265;53.972;12.286;2023-03-23T04:14:43;18.73;;;9.45;;
64826;SDS011;51265;53.972;12.286;2023-03-23T04:17:09;23.25;;;9.63;;
64826;SDS011;51265;53.972;12.286;2023-03-23T04:19:36;22.05;;;9.95;;
64826;SDS011;51265;53.972;12.286;2023-03-23T04:22:04;20.73;;;9.98;;
64826;SDS011;51265;53.972;12.286;2023-03-23T04:24:33;23.98;;;10.32;;
64826;SDS011;51265;53.972;12.286;2023-03-23T04:27:03;25.00;;;10.20;;
64826;SDS011;51265;53.972;12.286;2023-03-23T04:29:30;17.50;;;9.75;;
64826;SDS011;51265;53.972;12.286;2023-03-23T04:32:19;23.83;;;10.07;;
64826;SDS011;51265;53.972;12.286;2023-03-23T04:34:50;25.92;;;10.18;;
64826;SDS011;51265;53.972;12.286;2023-03-23T04:37:19;25.02;;;10.25;;
64826;SDS011;51265;53.972;12.286;2023-03-23T04:39:45;26.17;;;10.98;;
64826;SDS011;51265;53.972;12.286;2023-03-23T04:42:13;20.77;;;9.80;;
64826;SDS011;51265;53.972;12.286;2023-03-23T04:44:58;21.40;;;10.38;;
64826;SDS011;51265;53.972;12.286;2023-03-23T04:47:33;22.83;;;10.95;;
64826;SDS011;51265;53.972;12.286;2023-03-23T04:50:11;33.08;;;12.80;;
64826;SDS011;51265;53.972;12.286;2023-03-23T04:52:40;25.65;;;11.23;;
64826;SDS011;51265;53.972;12.286;2023-03-23T04:55:11;26.13;;;11.15;;
64826;SDS011;51265;53.972;12.286;2023-03-23T04:57:40;21.02;;;11.10;;
64826;SDS011;51265;53.972;12.286;2023-03-23T05:00:25;21.17;;;10.98;;
64826;SDS011;51265;53.972;12.286;2023-03-23T05:02:54;28.45;;;11.35;;
64826;SDS011;51265;53.972;12.286;2023-03-23T05:05:23;26.00;;;11.13;;
64826;SDS011;51265;53.972;12.286;2023-03-23T05:07:52;23.85;;;12.02;;
64826;SDS011;51265;53.972;12.286;2023-03-23T05:10:22;22.45;;;10.88;;
64826;SDS011;51265;53.972;12.286;2023-03-23T05:12:52;26.67;;;12.13;;
64826;SDS011;51265;53.972;12.286;2023-03-23T05:15:18;23.63;;;11.32;;
64826;SDS011;51265;53.972;12.286;2023-03-23T05:17:46;23.38;;;11.88;;
64826;SDS011;51265;53.972;12.286;2023-03-23T05:20:17;26.83;;;12.18;;
64826;SDS011;51265;53.972;12.286;2023-03-23T05:22:48;24.95;;;12.55;;
64826;SDS011;51265;53.972;12.286;2023-03-23T05:25:19;24.38;;;11.15;;
64826;SDS011;51265;53.972;12.286;2023-03-23T05:27:51;25.38;;;12.38;;
64826;SDS011;51265;53.972;12.286;2023-03-23T05:30:37;25.90;;;12.68;;
64826;SDS011;51265;53.972;12.286;2023-03-23T05:33:06;21.40;;;12.50;;
64826;SDS011;51265;53.972;12.286;2023-03-23T05:35:45;24.08;;;13.32;;
64826;SDS011;51265;53.972;12.286;2023-03-23T05:38:13;21.67;;;13.07;;
64826;SDS011;51265;53.972;12.286;2023-03-23T05:40:40;28.00;;;13.40;;
64826;SDS011;51265;53.972;12.286;2023-03-23T05:43:22;25.15;;;12.10;;
64826;SDS011;51265;53.972;12.286;2023-03-23T05:45:59;24.02;;;12.75;;
64826;SDS011;51265;53.972;12.286;2023-03-23T05:48:25;23.60;;;12.93;;
64826;SDS011;51265;53.972;12.286;2023-03-23T05:50:52;23.92;;;12.63;;
64826;SDS011;51265;53.972;12.286;2023-03-23T05:53:22;24.23;;;13.15;;
64826;SDS011;51265;53.972;12.286;2023-03-23T05:55:49;26.17;;;13.57;;
64826;SDS011;51265;53.972;12.286;2023-03-23T05:58:24;28.48;;;14.15;;
64826;SDS011;51265;53.972;12.286;2023-03-23T06:00:50;28.63;;;13.80;;
64826;SDS011;51265;53.972;12.286;2023-03-23T06:03:26;25.38;;;12.65;;
64826;SDS011;51265;53.972;12.286;2023-03-23T06:06:06;24.90;;;13.60;;
64826;SDS011;51265;53.972;12.286;2023-03-23T06:08:47;25.13;;;13.43;;
64826;SDS011;51265;53.972;12.286;2023-03-23T06:11:16;25.60;;;13.50;;
64826;SDS011;51265;53.972;12.286;2023-03-23T06:13:53;26.65;;;13.23;;
64826;SDS011;51265;53.972;12.286;2023-03-23T06:16:20;23.75;;;13.13;;
64826;SDS011;51265;53.972;12.286;2023-03-23T06:18:56;23.85;;;14.20;;
64826;SDS011;51265;53.972;12.286;2023-03-23T06:21:30;23.60;;;13.45;;
64826;SDS011;51265;53.972;12.286;2023-03-23T06:24:08;27.80;;;14.43;;
64826;SDS011;51265;53.972;12.286;2023-03-23T06:26:37;25.63;;;14.23;;
64826;SDS011;51265;53.972;12.286;2023-03-23T06:29:08;22.57;;;13.53;;
64826;SDS011;51265;53.972;12.286;2023-03-23T06:31:51;26.63;;;13.48;;
64826;SDS011;51265;53.972;12.286;2023-03-23T06:34:21;22.80;;;13.10;;
64826;SDS011;51265;53.972;12.286;2023-03-23T06:37:06;23.25;;;12.38;;
64826;SDS011;51265;53.972;12.286;2023-03-23T06:39:38;21.40;;;13.38;;
64826;SDS011;51265;53.972;12.286;2023-03-23T06:42:24;24.83;;;13.30;;
64826;SDS011;51265;53.972;12.286;2023-03-23T06:45:07;23.60;;;12.73;;
64826;SDS011;51265;53.972;12.286;2023-03-23T06:47:36;24.08;;;12.88;;
64826;SDS011;51265;53.972;12.286;2023-03-23T06:50:03;23.48;;;12.32;;
64826;SDS011;51265;53.972;12.286;2023-03-23T06:52:31;23.17;;;12.95;;
64826;SDS011;51265;53.972;12.286;2023-03-23T06:54:58;21.35;;;12.90;;
64826;SDS011;51265;53.972;12.286;2023-03-23T06:57:24;20.50;;;12.48;;
64826;SDS011;51265;53.972;12.286;2023-03-23T06:59:52;21.50;;;12.85;;
64826;SDS011;51265;53.972;12.286;2023-03-23T07:02:18;26.83;;;13.10;;
64826;SDS011;51265;53.972;12.286;2023-03-23T07:04:48;23.25;;;12.32;;
64826;SDS011;51265;53.972;12.286;2023-03-23T07:07:20;20.40;;;12.63;;
64826;SDS011;51265;53.972;12.286;2023-03-23T07:09:51;20.10;;;12.00;;
64826;SDS011;51265;53.972;12.286;2023-03-23T07:12:21;19.75;;;11.45;;
64826;SDS011;51265;53.972;12.286;2023-03-23T07:14:50;20.67;;;12.05;;
64826;SDS011;51265;53.972;12.286;2023-03-23T07:17:16;23.20;;;11.27;;
64826;SDS011;51265;53.972;12.286;2023-03-23T07:20:01;18.73;;;10.50;;
64826;SDS011;51265;53.972;12.286;2023-03-23T07:22:29;17.95;;;11.00;;
64826;SDS011;51265;53.972;12.286;2023-03-23T07:25:04;17.35;;;10.13;;
64826;SDS011;51265;53.972;12.286;2023-03-23T07:27:41;13.40;;;9.57;;
64826;SDS011;51265;53.972;12.286;2023-03-23T07:30:20;13.63;;;8.98;;
64826;SDS011;51265;53.972;12.286;2023-03-23T07:32:46;13.98;;;9.15;;
64826;SDS011;51265;53.972;12.286;2023-03-23T07:35:13;18.20;;;8.40;;
64826;SDS011;51265;53.972;12.286;2023-03-23T07:37:57;18.10;;;8.43;;
64826;SDS011;51265;53.972;12.286;2023-03-23T07:40:25;13.20;;;7.53;;
64826;SDS011;51265;53.972;12.286;2023-03-23T07:42:55;11.80;;;6.65;;
64826;SDS011;51265;53.972;12.286;2023-03-23T07:45:33;10.45;;;7.07;;
64826;SDS011;51265;53.972;12.286;2023-03-23T07:47:59;10.07;;;6.80;;
64826;SDS011;51265;53.972;12.286;2023-03-23T07:50:26;11.10;;;6.65;;
64826;SDS011;51265;53.972;12.286;2023-03-23T07:52:55;10.60;;;6.40;;
64826;SDS011;51265;53.972;12.286;2023-03-23T07:55:24;8.93;;;5.85;;
64826;SDS011;51265;53.972;12.286;2023-03-23T07:58:00;8.88;;;5.97;;
64826;SDS011;51265;53.972;12.286;2023-03-23T08:00:26;9.60;;;5.53;;
64826;SDS011;51265;53.972;12.286;2023-03-23T08:02:54;9.75;;;6.30;;
64826;SDS011;51265;53.972;12.286;2023-03-23T08:05:42;10.07;;;5.32;;
64826;SDS011;51265;53.972;12.286;2023-03-23T08:08:27;9.75;;;5.30;;
64826;SDS011;51265;53.972;12.286;2023-03-23T08:11:03;10.43;;;4.93;;
64826;SDS011;51265;53.972;12.286;2023-03-23T08:13:48;7.43;;;4.70;;
64826;SDS011;51265;53.972;12.286;2023-03-23T08:16:33;6.53;;;4.15;;
64826;SDS011;51265;53.972;12.286;2023-03-23T08:19:12;8.52;;;3.97;;
64826;SDS011;51265;53.972;12.286;2023-03-23T08:21:57;7.75;;;3.85;;
64826;SDS011;51265;53.972;12.286;2023-03-23T08:24:38;7.45;;;3.50;;
64826;SDS011;51265;53.972;12.286;2023-03-23T08:27:23;8.07;;;3.90;;
64826;SDS011;51265;53.972;12.286;2023-03-23T08:30:00;9.13;;;3.80;;
64826;SDS011;51265;53.972;12.286;2023-03-23T08:33:05;6.47;;;3.63;;
64826;SDS011;51265;53.972;12.286;2023-03-23T08:35:43;5.15;;;3.53;;
64826;SDS011;51265;53.972;12.286;2023-03-23T08:38:29;7.18;;;3.42;;
64826;SDS011;51265;53.972;12.286;2023-03-23T08:41:23;5.30;;;3.65;;
64826;SDS011;51265;53.972;12.286;2023-03-23T08:43:49;7.45;;;3.58;;
64826;SDS011;51265;53.972;12.286;2023-03-23T08:46:38;6.07;;;3.53;;
64826;SDS011;51265;53.972;12.286;2023-03-23T08:49:12;6.50;;;3.45;;
64826;SDS011;51265;53.972;12.286;2023-03-23T08:52:11;5.95;;;3.05;;
64826;SDS011;51265;53.972;12.286;2023-03-23T08:54:54;6.28;;;3.47;;
64826;SDS011;51265;53.972;12.286;2023-03-23T08:57:38;8.27;;;3.83;;
64826;SDS011;51265;53.972;12.286;2023-03-23T09:00:18;6.57;;;3.85;;
64826;SDS011;51265;53.972;12.286;2023-03-23T09:03:08;7.40;;;3.60;;
64826;SDS011;51265;53.972;12.286;2023-03-23T09:05:49;7.40;;;3.45;;
64826;SDS011;51265;53.972;12.286;2023-03-23T09:08:16;4.97;;;3.38;;
64826;SDS011;51265;53.972;12.286;2023-03-23T09:10:42;6.45;;;3.60;;
64826;SDS011;51265;53.972;12.286;2023-03-23T09:13:08;7.55;;;3.60;;
64826;SDS011;51265;53.972;12.286;2023-03-23T09:15:34;7.32;;;3.10;;
64826;SDS011;51265;53.972;12.286;2023-03-23T09:18:01;4.55;;;3.10;;
64826;SDS011;51265;53.972;12.286;2023-03-23T09:20:27;4.65;;;2.85;;
64826;SDS011;51265;53.972;12.286;2023-03-23T09:22:54;6.40;;;3.35;;
64826;SDS011;51265;53.972;12.286;2023-03-23T09:25:23;4.28;;;3.30;;
64826;SDS011;51265;53.972;12.286;2023-03-23T09:27:53;6.22;;;3.17;;
64826;SDS011;51265;53.972;12.286;2023-03-23T09:30:28;4.90;;;2.85;;
64826;SDS011;51265;53.972;12.286;2023-03-23T09:32:56;5.72;;;3.08;;
64826;SDS011;51265;53.972;12.286;2023-03-23T09:35:27;4.40;;;2.40;;
64826;SDS011;51265;53.972;12.286;2023-03-23T09:37:54;4.28;;;2.30;;
64826;SDS011;51265;53.972;12.286;2023-03-23T09:40:21;7.53;;;3.03;;
64826;SDS011;51265;53.972;12.286;2023-03-23T09:45:58;5.05;;;2.75;;
64826;SDS011;51265;53.972;12.286;2023-03-23T09:48:44;4.38;;;2.78;;
64826;SDS011;51265;53.972;12.286;2023-03-23T09:51:21;9.05;;;3.17;;
64826;SDS011;51265;53.972;12.286;2023-03-23T09:53:56;3.30;;;2.58;;
64826;SDS011;51265;53.972;12.286;2023-03-23T09:56:30;4.40;;;2.45;;
64826;SDS011;51265;53.972;12.286;2023-03-23T10:01:35;4.72;;;3.00;;
64826;SDS011;51265;53.972;12.286;2023-03-23T10:04:14;4.35;;;2.90;;
64826;SDS011;51265;53.972;12.286;2023-03-23T10:07:08;3.83;;;2.60;;
64826;SDS011;51265;53.972;12.286;2023-03-23T10:09:46;6.43;;;2.95;;
64826;SDS011;51265;53.972;12.286;2023-03-23T10:15:10;10.25;;;2.28;;
64826;SDS011;51265;53.972;12.286;2023-03-23T10:17:51;6.10;;;2.80;;
64826;SDS011;51265;53.972;12.286;2023-03-23T10:23:52;4.10;;;1.05;;
64826;SDS011;51265;53.972;12.286;2023-03-23T10:31:58;6.55;;;1.00;;
64826;SDS011;51265;53.972;12.286;2023-03-23T10:34:32;3.35;;;0.73;;
64826;SDS011;51265;53.972;12.286;2023-03-23T10:37:14;4.63;;;0.93;;
64826;SDS011;51265;53.972;12.286;2023-03-23T10:40:03;3.25;;;0.70;;
64826;SDS011;51265;53.972;12.286;2023-03-23T10:42:33;4.65;;;0.85;;
64826;SDS011;51265;53.972;12.286;2023-03-23T10:48:00;2.58;;;0.80;;
64826;SDS011;51265;53.972;12.286;2023-03-23T10:50:48;5.63;;;0.95;;
64826;SDS011;51265;53.972;12.286;2023-03-23T10:53:20;3.95;;;0.70;;
64826;SDS011;51265;53.972;12.286;2023-03-23T10:55:49;5.47;;;0.85;;
64826;SDS011;51265;53.972;12.286;2023-03-23T10:58:23;2.97;;;0.68;;
64826;SDS011;51265;53.972;12.286;2023-03-23T11:00:51;7.20;;;0.80;;
64826;SDS011;51265;53.972;12.286;2023-03-23T11:06:23;4.43;;;0.88;;
64826;SDS011;51265;53.972;12.286;2023-03-23T11:08:56;4.45;;;1.20;;
64826;SDS011;51265;53.972;12.286;2023-03-23T11:11:30;3.22;;;0.90;;
64826;SDS011;51265;53.972;12.286;2023-03-23T11:14:11;1.98;;;0.98;;
64826;SDS011;51265;53.972;12.286;2023-03-23T11:16:46;5.28;;;1.40;;
64826;SDS011;51265;53.972;12.286;2023-03-23T11:19:25;3.97;;;1.70;;
64826;SDS011;51265;53.972;12.286;2023-03-23T11:21:55;3.50;;;1.60;;
64826;SDS011;51265;53.972;12.286;2023-03-23T11:24:33;4.47;;;2.03;;
64826;SDS011;51265;53.972;12.286;2023-03-23T11:27:06;3.95;;;2.22;;
64826;SDS011;51265;53.972;12.286;2023-03-23T11:29:34;3.88;;;2.22;;
64826;SDS011;51265;53.972;12.286;2023-03-23T11:32:08;5.07;;;2.30;;
64826;SDS011;51265;53.972;12.286;2023-03-23T11:34:42;4.82;;;2.10;;
64826;SDS011;51265;53.972;12.286;2023-03-23T11:37:27;6.60;;;2.30;;
64826;SDS011;51265;53.972;12.286;2023-03-23T11:39:56;4.78;;;2.20;;
64826;SDS011;51265;53.972;12.286;2023-03-23T11:42:48;4.45;;;2.42;;
64826;SDS011;51265;53.972;12.286;2023-03-23T11:45:39;4.15;;;2.13;;
64826;SDS011;51265;53.972;12.286;2023-03-23T11:53:37;8.65;;;1.60;;
64826;SDS011;51265;53.972;12.286;2023-03-23T11:56:22;6.03;;;1.58;;
64826;SDS011;51265;53.972;12.286;2023-03-23T11:58:49;5.13;;;1.58;;
64826;SDS011;51265;53.972;12.286;2023-03-23T12:13:03;5.80;;;1.42;;
64826;SDS011;51265;53.972;12.286;2023-03-23T12:15:41;5.45;;;1.20;;
64826;SDS011;51265;53.972;12.286;2023-03-23T12:18:37;7.30;;;1.60;;
64826;SDS011;51265;53.972;12.286;2023-03-23T12:24:17;9.25;;;1.58;;
64826;SDS011;51265;53.972;12.286;2023-03-23T12:26:57;5.57;;;1.47;;
64826;SDS011;51265;53.972;12.286;2023-03-23T12:40:32;9.75;;;1.42;;
64826;SDS011;51265;53.972;12.286;2023-03-23T12:46:09;5.18;;;1.27;;
64826;SDS011;51265;53.972;12.286;2023-03-23T12:51:30;12.35;;;1.40;;
64826;SDS011;51265;53.972;12.286;2023-03-23T13:01:59;4.50;;;1.25;;
64826;SDS011;51265;53.972;12.286;2023-03-23T13:04:38;8.07;;;1.73;;
64826;SDS011;51265;53.972;12.286;2023-03-23T13:07:12;6.75;;;1.38;;
64826;SDS011;51265;53.972;12.286;2023-03-23T13:12:46;9.23;;;1.20;;
64826;SDS011;51265;53.972;12.286;2023-03-23T13:17:59;8.57;;;1.63;;
64826;SDS011;51265;53.972;12.286;2023-03-23T13:23:21;5.55;;;1.25;;
64826;SDS011;51265;53.972;12.286;2023-03-23T13:25:54;7.57;;;1.70;;
64826;SDS011;51265;53.972;12.286;2023-03-23T13:28:49;8.38;;;2.10;;
64826;SDS011;51265;53.972;12.286;2023-03-23T13:34:03;6.63;;;1.75;;
64826;SDS011;51265;53.972;12.286;2023-03-23T13:36:36;8.63;;;1.95;;
64826;SDS011;51265;53.972;12.286;2023-03-23T13:39:05;10.68;;;1.98;;
64826;SDS011;51265;53.972;12.286;2023-03-23T13:41:45;5.63;;;1.38;;
64826;SDS011;51265;53.972;12.286;2023-03-23T13:44:25;7.63;;;1.42;;
64826;SDS011;51265;53.972;12.286;2023-03-23T13:57:51;7.15;;;1.50;;
64826;SDS011;51265;53.972;12.286;2023-03-23T14:05:32;10.55;;;1.70;;
64826;SDS011;51265;53.972;12.286;2023-03-23T14:08:02;7.15;;;1.90;;
64826;SDS011;51265;53.972;12.286;2023-03-23T14:13:14;5.60;;;1.38;;
64826;SDS011;51265;53.972;12.286;2023-03-23T14:15:44;6.55;;;1.75;;
64826;SDS011;51265;53.972;12.286;2023-03-23T14:18:21;13.27;;;1.90;;
64826;SDS011;51265;53.972;12.286;2023-03-23T14:20:49;7.82;;;1.80;;
64826;SDS011;51265;53.972;12.286;2023-03-23T14:23:16;9.15;;;1.90;;
64826;SDS011;51265;53.972;12.286;2023-03-23T14:25:44;8.48;;;1.73;;
64826;SDS011;51265;53.972;12.286;2023-03-23T14:28:20;10.32;;;1.85;;
64826;SDS011;51265;53.972;12.286;2023-03-23T14:30:53;9.85;;;2.17;;
64826;SDS011;51265;53.972;12.286;2023-03-23T14:33:20;8.95;;;1.90;;
64826;SDS011;51265;53.972;12.286;2023-03-23T14:35:47;10.88;;;2.08;;
64826;SDS011;51265;53.972;12.286;2023-03-23T14:38:19;10.75;;;1.83;;
64826;SDS011;51265;53.972;12.286;2023-03-23T14:40:50;7.72;;;1.77;;
64826;SDS011;51265;53.972;12.286;2023-03-23T14:43:17;12.88;;;1.92;;
64826;SDS011;51265;53.972;12.286;2023-03-23T14:45:47;9.57;;;1.98;;
64826;SDS011;51265;53.972;12.286;2023-03-23T14:48:18;8.80;;;1.75;;
64826;SDS011;51265;53.972;12.286;2023-03-23T14:50:51;16.25;;;2.38;;
64826;SDS011;51265;53.972;12.286;2023-03-23T14:53:26;8.88;;;1.80;;
64826;SDS011;51265;53.972;12.286;2023-03-23T14:55:59;8.95;;;1.92;;
64826;SDS011;51265;53.972;12.286;2023-03-23T14:58:28;9.80;;;1.92;;
64826;SDS011;51265;53.972;12.286;2023-03-23T15:01:02;9.68;;;1.90;;
64826;SDS011;51265;53.972;12.286;2023-03-23T15:03:36;10.77;;;1.95;;
64826;SDS011;51265;53.972;12.286;2023-03-23T15:06:14;11.50;;;2.00;;
64826;SDS011;51265;53.972;12.286;2023-03-23T15:08:43;8.05;;;1.95;;
64826;SDS011;51265;53.972;12.286;2023-03-23T15:11:32;5.75;;;1.50;;
64826;SDS011;51265;53.972;12.286;2023-03-23T15:14:02;8.55;;;1.90;;
64826;SDS011;51265;53.972;12.286;2023-03-23T15:16:34;5.47;;;1.88;;
64826;SDS011;51265;53.972;12.286;2023-03-23T15:19:02;8.32;;;1.98;;
64826;SDS011;51265;53.972;12.286;2023-03-23T15:21:32;6.90;;;1.90;;
64826;SDS011;51265;53.972;12.286;2023-03-23T15:24:01;8.98;;;1.80;;
64826;SDS011;51265;53.972;12.286;2023-03-23T15:26:30;13.23;;;1.70;;
64826;SDS011;51265;53.972;12.286;2023-03-23T15:31:33;5.38;;;1.50;;
64826;SDS011;51265;53.972;12.286;2023-03-23T15:34:05;4.15;;;1.63;;
64826;SDS011;51265;53.972;12.286;2023-03-23T15:36:36;8.73;;;1.80;;
64826;SDS011;51265;53.972;12.286;2023-03-23T15:39:02;7.47;;;1.88;;
64826;SDS011;51265;53.972;12.286;2023-03-23T15:41:31;9.68;;;1.60;;
64826;SDS011;51265;53.972;12.286;2023-03-23T15:44:11;6.00;;;1.80;;
64826;SDS011;51265;53.972;12.286;2023-03-23T15:46:47;9.82;;;1.55;;
64826;SDS011;51265;53.972;12.286;2023-03-23T15:49:16;8.60;;;1.90;;
64826;SDS011;51265;53.972;12.286;2023-03-23T15:51:42;5.78;;;1.33;;
64826;SDS011;51265;53.972;12.286;2023-03-23T15:54:12;8.70;;;1.67;;
64826;SDS011;51265;53.972;12.286;2023-03-23T15:56:41;9.88;;;2.08;;
64826;SDS011;51265;53.972;12.286;2023-03-23T15:59:09;5.90;;;1.80;;
64826;SDS011;51265;53.972;12.286;2023-03-23T16:01:36;10.75;;;2.08;;
64826;SDS011;51265;53.972;12.286;2023-03-23T16:04:09;8.13;;;2.05;;
64826;SDS011;51265;53.972;12.286;2023-03-23T16:06:39;8.05;;;2.28;;
64826;SDS011;51265;53.972;12.286;2023-03-23T16:09:07;10.95;;;1.80;;
64826;SDS011;51265;53.972;12.286;2023-03-23T16:11:38;6.00;;;2.10;;
64826;SDS011;51265;53.972;12.286;2023-03-23T16:14:04;9.02;;;1.85;;
64826;SDS011;51265;53.972;12.286;2023-03-23T16:16:34;6.47;;;1.88;;
64826;SDS011;51265;53.972;12.286;2023-03-23T16:19:03;10.80;;;2.70;;
64826;SDS011;51265;53.972;12.286;2023-03-23T16:21:31;4.53;;;1.80;;
64826;SDS011;51265;53.972;12.286;2023-03-23T16:23:57;6.07;;;1.25;;
64826;SDS011;51265;53.972;12.286;2023-03-23T16:26:23;3.85;;;0.90;;
64826;SDS011;51265;53.972;12.286;2023-03-23T16:28:50;5.50;;;0.70;;
64826;SDS011;51265;53.972;12.286;2023-03-23T16:31:16;1.85;;;0.60;;
64826;SDS011;51265;53.972;12.286;2023-03-23T16:33:42;4.32;;;1.10;;
64826;SDS011;51265;53.972;12.286;2023-03-23T16:36:10;4.90;;;1.10;;
64826;SDS011;51265;53.972;12.286;2023-03-23T16:38:38;5.13;;;1.48;;
64826;SDS011;51265;53.972;12.286;2023-03-23T16:41:05;7.10;;;1.58;;
64826;SDS011;51265;53.972;12.286;2023-03-23T16:43:33;10.70;;;3.65;;
64826;SDS011;51265;53.972;12.286;2023-03-23T16:45:59;5.22;;;1.15;;
64826;SDS011;51265;53.972;12.286;2023-03-23T16:48:26;3.03;;;0.90;;
64826;SDS011;51265;53.972;12.286;2023-03-23T16:50:52;5.18;;;1.52;;
64826;SDS011;51265;53.972;12.286;2023-03-23T16:53:19;4.07;;;1.10;;
64826;SDS011;51265;53.972;12.286;2023-03-23T16:55:47;10.65;;;2.30;;
64826;SDS011;51265;53.972;12.286;2023-03-23T16:58:15;6.97;;;1.48;;